Time;durP1;ratioP1;P1;durP2;ratioP2;P2;SDS_P1;SDS_P2;PMS_P1;PMS_P2;Temp;Humidity;BMP_temperature;BMP_pressure;BME280_temperature;BME280_humidity;BME280_pressure;Samples;Min_cycle;Max_cycle;Signal;HPM_P1;HPM_P2
2023/08/03 00:00:40;;;;;;;2.38;0.80;;;16.50;99.90;;;-144.05;85.36;57003.88;6185299;23;20418;-86
2023/08/03 00:03:06;;;;;;;5.45;1.17;;;16.50;99.90;;;-144.05;85.52;56974.16;6159006;23;20007;-87
2023/08/03 00:05:32;;;;;;;9.02;1.20;;;16.40;99.90;;;-144.05;85.44;56986.91;6159191;23;20009;-86
2023/08/03 00:07:58;;;;;;;4.80;1.05;;;16.40;99.90;;;-144.05;85.39;56997.50;6159680;23;20005;-83
2023/08/03 00:10:24;;;;;;;3.78;1.00;;;16.40;99.90;;;-144.05;87.44;57001.75;6159110;23;20005;-86
2023/08/03 00:12:51;;;;;;;4.07;0.90;;;16.40;99.90;;;-144.05;87.42;56995.38;6161757;23;20009;-87
2023/08/03 00:15:18;;;;;;;1.00;0.73;;;16.30;99.90;;;-144.05;87.41;56980.53;6162180;23;20044;-87
2023/08/03 00:17:45;;;;;;;3.65;1.00;;;16.20;99.90;;;-144.05;88.20;56991.13;6158279;23;20008;-85
2023/08/03 00:20:11;;;;;;;3.20;0.88;;;16.20;99.90;;;-144.05;87.54;56980.53;6184996;23;20080;-85
2023/08/03 00:22:37;;;;;;;3.20;0.98;;;16.20;99.90;;;-144.05;87.53;56986.91;6184638;23;20009;-83
2023/08/03 00:25:04;;;;;;;3.95;1.10;;;16.20;99.90;;;-144.05;88.33;56980.53;6157992;23;20324;-85
2023/08/03 00:27:34;;;;;;;3.00;0.70;;;16.10;99.90;;;-144.05;88.18;56976.28;6158122;23;20350;-86
2023/08/03 00:30:00;;;;;;;3.75;1.05;;;16.10;99.90;;;-144.05;88.31;56999.63;6185060;23;20008;-85
2023/08/03 00:32:25;;;;;;;2.22;1.00;;;16.10;99.90;;;-144.05;89.56;56976.28;6158187;23;20012;-83
2023/08/03 00:34:52;;;;;;;3.05;1.25;;;16.00;99.90;;;-144.05;89.19;56986.91;6158527;23;20446;-85
2023/08/03 00:37:18;;;;;;;2.88;1.00;;;15.90;99.90;;;-144.05;89.96;56980.53;6158439;23;20284;-85
2023/08/03 00:39:44;;;;;;;2.17;1.20;;;15.90;99.90;;;-144.05;89.33;56984.78;6157830;23;20020;-85
2023/08/03 00:42:10;;;;;;;5.05;1.20;;;15.90;99.90;;;-144.05;89.83;56986.91;6157986;23;20012;-85
2023/08/03 00:44:37;;;;;;;7.13;0.82;;;15.90;99.90;;;-144.05;88.96;56984.78;6158352;23;20013;-85
2023/08/03 00:47:04;;;;;;;3.13;0.90;;;16.00;99.90;;;-144.05;88.42;56972.03;6184438;23;20339;-84
2023/08/03 00:49:29;;;;;;;5.45;1.00;;;16.00;99.90;;;-144.05;88.33;56999.63;6184320;23;20005;-85
2023/08/03 00:51:57;;;;;;;3.05;0.82;;;16.00;99.90;;;-144.05;87.82;56997.50;6158155;23;20419;-86
2023/08/03 00:54:24;;;;;;;3.95;1.00;;;16.10;99.90;;;-144.05;87.40;56989.00;6157999;23;20147;-86
2023/08/03 00:56:50;;;;;;;3.67;1.27;;;16.10;99.90;;;-144.05;88.40;56980.53;6158193;23;20447;-87
2023/08/03 00:59:17;;;;;;;3.03;0.93;;;16.00;99.90;;;-144.05;88.00;56995.38;6157819;23;20019;-85
2023/08/03 01:01:44;;;;;;;2.05;0.90;;;16.10;99.90;;;-144.05;88.45;56984.78;6157970;23;20013;-87
2023/08/03 01:04:10;;;;;;;4.25;0.95;;;16.00;99.90;;;-144.05;88.76;56989.00;6157186;23;20020;-85
2023/08/03 01:06:36;;;;;;;3.20;1.10;;;16.00;99.90;;;-144.05;88.80;57001.75;6158270;23;20476;-85
2023/08/03 01:09:05;;;;;;;4.35;1.15;;;16.00;99.90;;;-144.05;89.16;57006.00;6158192;23;20005;-86
2023/08/03 01:11:31;;;;;;;3.20;1.10;;;15.90;99.90;;;-144.05;88.55;56997.50;6158474;23;20005;-85
2023/08/03 01:13:59;;;;;;;2.67;1.02;;;15.90;99.90;;;-144.05;88.38;56976.28;6157840;23;20008;-83
2023/08/03 01:16:27;;;;;;;1.77;1.10;;;16.00;99.90;;;-144.05;88.50;56989.00;6158433;23;20063;-87
2023/08/03 01:18:54;;;;;;;3.03;0.85;;;16.00;99.90;;;-144.05;88.37;57008.13;6158597;23;20013;-83
2023/08/03 01:21:22;;;;;;;1.15;0.88;;;16.00;99.90;;;-144.05;88.43;56991.13;6158373;23;20105;-83
2023/08/03 01:23:48;;;;;;;2.58;0.82;;;16.10;99.90;;;-144.05;89.06;57014.50;6157741;23;20008;-84
2023/08/03 01:26:14;;;;;;;1.02;0.80;;;16.10;99.90;;;-144.05;88.89;56984.78;6157853;23;20013;-83
2023/08/03 01:28:40;;;;;;;1.38;0.80;;;16.10;99.90;;;-144.05;88.70;56982.66;6157495;23;20001;-84
2023/08/03 01:31:06;;;;;;;3.17;0.70;;;16.20;99.90;;;-144.05;88.27;56995.38;6157880;23;20001;-84
2023/08/03 01:33:33;;;;;;;4.15;0.80;;;16.10;99.90;;;-144.05;88.91;56972.03;6158813;23;20092;-84
2023/08/03 01:35:59;;;;;;;2.00;0.70;;;16.10;99.90;;;-144.05;89.16;56989.00;6157990;23;20013;-85
2023/08/03 01:38:24;;;;;;;3.00;1.27;;;16.10;99.90;;;-144.05;89.52;56980.53;6157865;23;20005;-86
2023/08/03 01:40:50;;;;;;;1.95;0.80;;;16.10;99.90;;;-144.05;90.17;56976.28;6184437;23;20016;-88
2023/08/03 01:43:16;;;;;;;3.30;0.70;;;16.10;99.90;;;-144.05;90.74;56976.28;6158077;23;20045;-86
2023/08/03 01:45:42;;;;;;;3.08;0.90;;;16.00;99.90;;;-144.05;91.48;56978.41;6158025;23;20009;-87
2023/08/03 01:48:08;;;;;;;2.17;0.90;;;16.00;99.90;;;-144.05;92.16;56995.38;6184446;23;20039;-83
2023/08/03 01:50:33;;;;;;;4.15;0.80;;;16.00;99.90;;;-144.05;91.49;57001.75;6184367;23;20025;-84
2023/08/03 01:52:59;;;;;;;2.35;0.88;;;15.90;99.90;;;-144.05;91.50;56982.66;6157976;23;20037;-85
2023/08/03 01:55:25;;;;;;;3.10;0.73;;;15.90;99.90;;;-144.05;92.46;56976.28;6158587;23;20535;-87
2023/08/03 01:57:51;;;;;;;4.97;0.90;;;15.90;99.90;;;-144.05;91.83;56984.78;6159618;23;20016;-86
2023/08/03 02:00:17;;;;;;;5.18;1.10;;;15.90;99.90;;;-144.05;91.27;56999.63;6185360;23;20013;-86
2023/08/03 02:02:43;;;;;;;1.80;0.85;;;15.90;99.90;;;-144.05;91.05;57003.88;6158169;23;19997;-85
2023/08/03 02:05:08;;;;;;;3.15;0.98;;;15.90;99.90;;;-144.05;91.28;57008.13;6157941;23;20024;-84
2023/08/03 02:08:01;;;;;;;1.48;0.80;;;15.90;99.90;;;-144.05;90.93;56991.13;6184827;23;20353;-86
2023/08/03 02:10:26;;;;;;;3.22;0.90;;;15.90;99.90;;;-144.05;90.84;57010.25;6155540;23;20009;-86
2023/08/03 02:12:52;;;;;;;3.50;1.27;;;16.00;99.90;;;-144.05;90.59;56982.66;6160316;23;20081;-86
2023/08/03 02:15:18;;;;;;;4.72;1.33;;;16.00;99.90;;;-144.05;90.28;56976.28;6163290;23;20039;-87
2023/08/03 02:17:44;;;;;;;3.50;0.98;;;16.00;99.90;;;-144.05;89.96;56993.25;6164912;23;20040;-88
2023/08/03 02:20:12;;;;;;;3.35;1.48;;;16.00;99.90;;;-144.05;90.17;56980.53;6165628;23;20354;-88
2023/08/03 02:22:38;;;;;;;3.03;1.55;;;16.00;99.90;;;-144.05;90.64;56997.50;6165460;23;20016;-87
2023/08/03 02:25:05;;;;;;;3.50;1.17;;;16.00;99.90;;;-144.05;90.47;56982.66;6166441;23;20012;-84
2023/08/03 02:27:31;;;;;;;4.20;1.60;;;16.00;99.90;;;-144.05;90.25;56986.91;6159712;23;20348;-85
2023/08/03 02:29:57;;;;;;;4.75;1.17;;;16.10;99.90;;;-144.05;89.98;56982.66;6159627;23;20009;-83
2023/08/03 02:32:24;;;;;;;9.25;1.67;;;16.10;99.90;;;-144.05;89.53;56997.50;6159112;23;20039;-82
2023/08/03 02:34:50;;;;;;;6.68;1.48;;;16.10;99.90;;;-144.05;89.42;57001.75;6185685;23;20012;-86
2023/08/03 02:37:16;;;;;;;5.25;1.45;;;16.10;99.90;;;-144.05;89.26;56986.91;6159864;23;20009;-84
2023/08/03 02:39:41;;;;;;;4.28;1.30;;;16.10;99.90;;;-144.05;88.55;56997.50;6177416;23;20036;-85
2023/08/03 02:42:07;;;;;;;2.83;1.15;;;16.10;99.90;;;-144.05;88.93;56999.63;6166451;23;20375;-85
2023/08/03 02:44:33;;;;;;;7.78;1.38;;;16.20;99.90;;;-144.05;88.46;57001.75;6162546;23;20013;-88
2023/08/03 02:46:59;;;;;;;3.22;1.38;;;16.10;99.90;;;-144.05;88.13;56978.41;6162614;23;20435;-85
2023/08/03 02:49:25;;;;;;;5.50;1.60;;;16.20;99.90;;;-144.05;88.08;56989.00;6161099;23;20084;-84
2023/08/03 02:51:51;;;;;;;4.63;1.30;;;16.20;99.90;;;-144.05;87.85;56991.13;6161118;23;20435;-83
2023/08/03 02:54:16;;;;;;;3.17;1.02;;;16.20;99.90;;;-144.05;87.86;56993.25;6160977;23;20016;-85
2023/08/03 02:56:42;;;;;;;4.00;1.15;;;16.20;99.90;;;-144.05;87.84;56989.00;6160366;23;20005;-85
2023/08/03 02:59:09;;;;;;;4.68;1.23;;;16.20;99.90;;;-144.05;87.51;56986.91;6161165;23;20013;-82
2023/08/03 03:01:35;;;;;;;2.85;0.95;;;16.20;99.90;;;-144.05;87.66;57016.63;6160051;23;20084;-84
2023/08/03 03:04:01;;;;;;;5.82;1.20;;;16.20;99.90;;;-144.05;87.71;57020.88;6159815;23;20037;-85
2023/08/03 03:06:27;;;;;;;2.72;0.90;;;16.20;99.90;;;-144.05;87.12;57008.13;6159065;23;20013;-84
2023/08/03 03:08:52;;;;;;;8.05;1.52;;;16.20;99.90;;;-144.05;87.35;56997.50;6185459;23;20016;-83
2023/08/03 03:11:18;;;;;;;4.38;1.20;;;16.20;99.90;;;-144.05;87.68;56989.00;6184912;23;20001;-84
2023/08/03 03:13:44;;;;;;;3.03;1.15;;;16.20;99.90;;;-144.05;87.85;56991.13;6158499;23;20096;-80
2023/08/03 03:16:10;;;;;;;4.50;1.52;;;16.20;99.90;;;-144.05;87.97;56980.53;6184966;23;20016;-83
2023/08/03 03:18:36;;;;;;;7.97;1.50;;;16.20;99.90;;;-144.05;87.62;56999.63;6184761;23;20015;-81
2023/08/03 03:21:01;;;;;;;5.43;1.45;;;16.20;99.90;;;-144.05;87.43;56999.63;6185756;23;20016;-82
2023/08/03 03:23:27;;;;;;;3.83;1.52;;;16.10;99.90;;;-144.05;87.30;56963.53;6159255;23;20323;-85
2023/08/03 03:25:53;;;;;;;3.70;1.10;;;16.20;99.90;;;-144.05;87.20;56986.91;6158639;23;20431;-83
2023/08/03 03:28:19;;;;;;;8.15;1.48;;;16.20;99.90;;;-144.05;87.00;56982.66;6184959;23;20001;-84
2023/08/03 03:30:45;;;;;;;7.72;1.90;;;16.20;99.90;;;-144.05;87.27;56997.50;6185135;23;20009;-82
2023/08/03 03:33:10;;;;;;;4.75;1.67;;;16.20;99.90;;;-144.05;87.25;56982.66;6184894;23;20116;-82
2023/08/03 03:35:36;;;;;;;4.68;1.55;;;16.20;99.90;;;-144.05;86.85;56989.00;6158449;23;20009;-82
2023/08/03 03:38:02;;;;;;;6.30;1.67;;;16.20;99.90;;;-144.05;86.12;56980.53;6187439;23;20017;-84
2023/08/03 03:40:28;;;;;;;4.30;1.35;;;16.20;99.90;;;-144.05;86.22;57003.88;6160326;23;20013;-82
2023/08/03 03:42:54;;;;;;;6.30;1.30;;;16.20;99.90;;;-144.05;86.07;56999.63;6158649;23;20063;-82
2023/08/03 03:45:19;;;;;;;9.70;1.92;;;16.20;99.90;;;-144.05;85.19;56980.53;6158463;23;20079;-84
2023/08/03 03:47:45;;;;;;;5.15;1.52;;;16.30;99.90;;;-144.05;84.69;56999.63;6158482;23;20005;-82
2023/08/03 03:50:11;;;;;;;3.42;1.25;;;16.30;99.90;;;-144.05;83.97;57014.50;6184547;23;20001;-81
2023/08/03 03:52:37;;;;;;;3.35;1.10;;;16.30;99.90;;;-144.05;84.90;56997.50;6157913;23;20021;-81
2023/08/03 03:55:03;;;;;;;8.35;1.67;;;16.40;99.90;;;-144.05;84.06;56986.91;6157920;23;20471;-85
2023/08/03 03:57:29;;;;;;;5.78;1.67;;;16.30;99.90;;;-144.05;83.57;56989.00;6186451;23;20464;-81
2023/08/03 03:59:55;;;;;;;3.08;1.00;;;16.30;99.90;;;-144.05;83.81;56989.00;6161022;23;20013;-84
2023/08/03 04:02:21;;;;;;;3.13;1.30;;;16.30;99.90;;;-144.05;83.28;56974.16;6160868;23;20012;-84
2023/08/03 04:04:47;;;;;;;7.93;1.13;;;16.30;99.90;;;-144.05;82.91;56982.66;6161330;23;20389;-84
2023/08/03 04:07:12;;;;;;;2.45;0.90;;;16.40;99.90;;;-144.05;82.88;56972.03;6188174;23;20001;-80
2023/08/03 04:09:38;;;;;;;2.45;1.13;;;16.40;99.90;;;-144.05;82.67;56989.00;6161513;23;20493;-82
2023/08/03 04:12:05;;;;;;;5.93;1.30;;;16.40;99.90;;;-144.05;83.32;57008.13;6160781;23;20169;-82
2023/08/03 04:14:30;;;;;;;3.83;1.35;;;16.40;99.90;;;-144.05;82.84;56993.25;6160536;23;20020;-82
2023/08/03 04:16:56;;;;;;;3.50;1.27;;;16.40;99.90;;;-144.05;83.62;56993.25;6160479;23;20013;-84
2023/08/03 04:19:22;;;;;;;3.00;1.27;;;16.30;99.90;;;-144.05;82.42;56974.16;6160841;23;20012;-80
2023/08/03 04:21:48;;;;;;;1.80;0.80;;;16.30;99.90;;;-144.05;82.40;56974.16;6186961;23;20107;-81
2023/08/03 04:24:14;;;;;;;3.75;1.00;;;16.40;99.90;;;-144.05;82.71;56978.41;6160048;23;20005;-84
2023/08/03 04:26:40;;;;;;;2.95;1.15;;;16.40;99.90;;;-144.05;82.34;56993.25;6160635;23;20489;-83
2023/08/03 04:29:05;;;;;;;7.15;1.25;;;16.40;99.90;;;-144.05;81.94;56967.78;6161083;23;20438;-83
2023/08/03 04:31:31;;;;;;;1.90;0.90;;;16.40;99.90;;;-144.05;82.42;56989.00;6186521;23;20001;-83
2023/08/03 04:33:57;;;;;;;4.10;1.27;;;16.40;99.90;;;-144.05;81.89;56978.41;6160141;23;20005;-81
2023/08/03 04:36:23;;;;;;;4.43;1.25;;;16.40;99.90;;;-144.05;82.66;56984.78;6186240;23;20016;-82
2023/08/03 04:38:49;;;;;;;5.68;0.85;;;16.50;99.90;;;-144.05;82.44;56989.00;6186384;23;20051;-83
2023/08/03 04:41:16;;;;;;;2.60;1.13;;;16.50;99.90;;;-144.05;81.74;56978.41;6161344;23;20024;-83
2023/08/03 04:43:42;;;;;;;4.50;0.93;;;16.50;99.90;;;-144.05;81.29;56991.13;6160506;23;20124;-86
2023/08/03 04:46:08;;;;;;;2.67;1.20;;;16.50;99.90;;;-144.05;81.32;56978.41;6160205;23;20100;-83
2023/08/03 04:48:34;;;;;;;3.33;1.00;;;16.60;99.90;;;-144.05;79.94;56982.66;6160988;23;20005;-84
2023/08/03 04:51:00;;;;;;;4.85;1.00;;;16.60;99.90;;;-144.05;79.89;56984.78;6187959;23;20005;-82
2023/08/03 04:53:25;;;;;;;4.75;0.90;;;16.60;99.90;;;-144.05;79.95;56980.53;6162484;23;20009;-84
2023/08/03 04:55:51;;;;;;;5.03;1.35;;;16.60;99.90;;;-144.05;80.13;56986.91;6160872;23;20016;-81
2023/08/03 04:58:17;;;;;;;2.75;0.88;;;16.60;99.90;;;-144.05;80.58;56997.50;6160364;23;20013;-81
2023/08/03 05:00:43;;;;;;;3.30;0.90;;;16.60;99.90;;;-144.05;80.12;56986.91;6186321;23;20067;-82
2023/08/03 05:03:09;;;;;;;5.45;0.80;;;16.60;99.90;;;-144.05;80.13;56997.50;6160504;23;20481;-83
2023/08/03 05:05:35;;;;;;;1.75;0.68;;;16.60;99.90;;;-144.05;80.04;57001.75;6158999;23;20005;-83
2023/08/03 05:08:00;;;;;;;2.53;0.80;;;16.70;99.90;;;-144.05;79.20;57006.00;6158955;23;20067;-82
2023/08/03 05:10:26;;;;;;;4.75;0.95;;;16.70;99.90;;;-144.05;79.33;56997.50;6160602;23;20013;-84
2023/08/03 05:12:52;;;;;;;1.52;0.90;;;16.70;99.90;;;-144.05;79.28;56980.53;6187130;23;20012;-82
2023/08/03 05:15:18;;;;;;;0.73;0.70;;;16.70;99.90;;;-144.05;79.75;57020.88;6160742;23;20476;-81
2023/08/03 05:17:44;;;;;;;7.63;1.02;;;16.70;99.90;;;-144.05;79.19;56999.63;6160990;23;20005;-83
2023/08/03 05:20:10;;;;;;;3.45;1.00;;;16.70;99.90;;;-144.05;80.20;56993.25;6160626;23;20431;-81
2023/08/03 05:22:36;;;;;;;2.13;1.00;;;16.70;99.90;;;-144.05;80.87;56997.50;6161346;23;20013;-86
2023/08/03 05:25:02;;;;;;;2.75;0.75;;;16.60;99.90;;;-144.05;82.04;57014.50;6188024;23;20055;-81
2023/08/03 05:27:29;;;;;;;1.88;0.80;;;16.50;99.90;;;-144.05;82.98;57012.38;6160043;23;20032;-85
2023/08/03 05:29:55;;;;;;;2.20;0.93;;;16.40;99.90;;;-144.05;83.33;57008.13;6159320;23;20001;-85
2023/08/03 05:32:25;;;;;;;3.33;0.88;;;16.40;99.90;;;-144.05;83.60;57006.00;6158976;23;20067;-84
2023/08/03 05:34:51;;;;;;;3.00;0.95;;;16.40;99.90;;;-144.05;84.47;56997.50;6186915;23;20005;-86
2023/08/03 05:37:17;;;;;;;3.63;0.93;;;16.30;99.90;;;-144.05;84.91;57008.13;6162568;23;20011;-86
2023/08/03 05:39:43;;;;;;;4.15;1.02;;;16.20;99.90;;;-144.05;86.61;56984.78;6160921;23;20016;-86
2023/08/03 05:42:14;;;;;;;1.13;0.50;;;16.20;99.90;;;-144.05;86.52;57027.25;6162471;23;20012;-86
2023/08/03 05:44:41;;;;;;;1.75;0.90;;;16.10;99.90;;;-144.05;86.92;56991.13;6182490;23;19997;-89
2023/08/03 05:47:11;;;;;;;3.03;1.02;;;16.10;99.90;;;-144.05;87.82;57001.75;6166766;23;20335;-88
2023/08/03 05:49:38;;;;;;;2.95;1.00;;;16.00;99.90;;;-144.05;87.59;57003.88;6162524;23;20005;-84
2023/08/03 05:52:05;;;;;;;1.27;0.95;;;16.00;99.90;;;-144.05;88.12;56993.25;6164083;23;20390;-87
2023/08/03 05:54:31;;;;;;;3.03;1.00;;;16.00;99.90;;;-144.05;87.87;56972.03;6163729;23;20009;-84
2023/08/03 05:56:57;;;;;;;3.03;0.90;;;16.00;99.90;;;-144.05;87.87;56993.25;6163024;23;20012;-88
2023/08/03 05:59:23;;;;;;;2.30;0.77;;;16.00;99.90;;;-144.05;87.34;56982.66;6163955;23;20012;-87
2023/08/03 06:01:51;;;;;;;2.78;1.10;;;16.00;99.90;;;-144.05;87.51;56982.66;6164262;23;20098;-87
2023/08/03 06:04:18;;;;;;;4.78;1.15;;;16.00;99.90;;;-144.05;87.92;56997.50;6165381;23;20020;-88
2023/08/03 06:06:46;;;;;;;3.28;0.95;;;16.00;99.90;;;-144.05;87.23;56993.25;6164884;23;20414;-87
2023/08/03 06:09:13;;;;;;;1.98;0.70;;;16.10;99.90;;;-144.05;86.65;56991.13;6164559;23;20395;-87
2023/08/03 06:11:40;;;;;;;1.83;0.80;;;16.20;99.90;;;-144.05;86.74;56993.25;6164987;23;20008;-84
2023/08/03 06:14:15;;;;;;;3.75;0.95;;;16.20;99.90;;;-144.05;85.39;56997.50;6163702;23;20005;-85
2023/08/03 06:16:45;;;;;;;1.52;0.75;;;16.30;99.90;;;-144.05;85.38;56980.53;6163380;23;20016;-86
2023/08/03 06:19:11;;;;;;;2.97;0.88;;;16.30;99.90;;;-144.05;85.41;56991.13;6163055;23;20015;-86
2023/08/03 06:21:37;;;;;;;2.28;0.80;;;16.40;99.90;;;-144.05;84.99;56961.41;6162492;23;20367;-87
2023/08/03 06:24:03;;;;;;;2.00;0.70;;;16.40;99.90;;;-144.05;85.37;57001.75;6162720;23;20001;-87
2023/08/03 06:26:36;;;;;;;5.07;0.77;;;16.40;99.90;;;-144.05;84.92;56999.63;6163299;23;20148;-86
2023/08/03 06:29:05;;;;;;;4.05;0.95;;;16.50;99.90;;;-144.05;84.07;56982.66;6189938;23;20005;-85
2023/08/03 06:31:38;;;;;;;1.48;0.60;;;16.60;99.90;;;-144.05;83.43;57006.00;6163544;23;20009;-84
2023/08/03 06:34:05;;;;;;;1.70;0.75;;;16.60;99.90;;;-144.05;83.72;56993.25;6162516;23;20109;-86
2023/08/03 06:36:31;;;;;;;2.17;0.70;;;16.60;99.90;;;-144.05;84.64;57008.13;6162713;23;20416;-89
2023/08/03 06:38:58;;;;;;;2.70;0.65;;;16.50;99.90;;;-144.05;85.46;56999.63;6190403;23;20009;-88
2023/08/03 06:41:26;;;;;;;4.40;1.02;;;16.40;99.90;;;-144.05;85.91;56999.63;6162686;23;20020;-88
2023/08/03 06:43:55;;;;;;;3.70;0.73;;;16.40;99.90;;;-144.05;86.62;56986.91;6162112;23;20083;-85
2023/08/03 06:46:22;;;;;;;5.07;1.13;;;16.30;99.90;;;-144.05;87.55;57001.75;6161337;23;20040;-88
2023/08/03 06:48:51;;;;;;;2.63;0.90;;;16.20;99.90;;;-144.05;88.31;57008.13;6161730;23;20017;-84
2023/08/03 06:51:18;;;;;;;2.72;0.93;;;16.10;99.90;;;-144.05;89.14;57010.25;6161693;23;20009;-86
2023/08/03 06:53:44;;;;;;;2.15;0.77;;;16.00;99.90;;;-144.05;90.53;56978.41;6161286;23;20016;-88
2023/08/03 06:56:10;;;;;;;1.20;0.60;;;15.90;99.90;;;-144.05;91.53;57014.50;6161657;23;20024;-86
2023/08/03 06:58:36;;;;;;;3.25;1.10;;;15.80;99.90;;;-144.05;92.72;56989.00;6161108;23;20009;-88
2023/08/03 07:01:02;;;;;;;1.40;0.40;;;15.70;99.90;;;-144.05;91.92;56980.53;6161027;23;20009;-86
2023/08/03 07:03:28;;;;;;;1.02;0.73;;;15.70;99.90;;;-144.05;92.18;56993.25;6160967;23;20001;-88
2023/08/03 07:05:54;;;;;;;2.58;0.82;;;15.70;99.90;;;-144.05;91.96;57018.75;6161896;23;20338;-89
2023/08/03 07:08:19;;;;;;;2.38;0.82;;;15.70;99.90;;;-144.05;92.59;56989.00;6165505;23;20005;-89
2023/08/03 07:10:45;;;;;;;1.58;0.77;;;15.70;99.90;;;-144.05;93.05;56997.50;6159729;23;20088;-87
2023/08/03 07:13:11;;;;;;;1.77;0.90;;;15.70;99.90;;;-144.05;93.33;56986.91;6159186;23;20016;-87
2023/08/03 07:15:37;;;;;;;1.42;0.90;;;15.70;99.90;;;-144.05;93.36;56986.91;6158936;23;20043;-84
2023/08/03 07:18:06;;;;;;;2.75;0.80;;;15.70;99.90;;;-144.05;93.54;56997.50;6159310;23;20009;-86
2023/08/03 07:20:34;;;;;;;3.58;0.80;;;15.70;99.90;;;-144.05;93.18;57003.88;6159496;23;20513;-84
2023/08/03 07:23:01;;;;;;;2.03;0.68;;;15.70;99.90;;;-144.05;93.03;56959.28;6185227;23;20001;-86
2023/08/03 07:25:27;;;;;;;1.85;0.88;;;15.70;99.90;;;-144.05;93.37;56995.38;6159313;23;20009;-89
2023/08/03 07:27:54;;;;;;;1.25;0.70;;;15.70;99.90;;;-144.05;93.24;56993.25;6159339;23;20044;-87
2023/08/03 07:30:20;;;;;;;2.42;0.75;;;15.80;99.90;;;-144.05;93.49;56976.28;6159833;23;20037;-86
2023/08/03 07:32:47;;;;;;;2.47;0.85;;;15.80;99.90;;;-144.05;93.76;56976.28;6159261;23;20016;-88
2023/08/03 07:35:13;;;;;;;4.35;1.00;;;15.90;99.90;;;-144.05;93.22;56982.66;6185736;23;20005;-87
2023/08/03 07:37:39;;;;;;;3.58;0.93;;;15.90;99.90;;;-144.05;93.24;56980.53;6159455;23;20497;-86
2023/08/03 07:40:07;;;;;;;2.78;1.08;;;16.00;99.90;;;-144.05;92.64;56991.13;6159854;23;20410;-88
2023/08/03 07:42:33;;;;;;;2.67;0.80;;;16.00;99.90;;;-144.05;93.15;56993.25;6159095;23;20012;-87
2023/08/03 07:44:59;;;;;;;4.85;1.00;;;16.00;99.90;;;-144.05;93.22;56999.63;6159770;23;20010;-86
2023/08/03 07:47:26;;;;;;;2.15;0.80;;;16.10;99.90;;;-144.05;92.06;57008.13;6159150;23;20092;-85
2023/08/03 07:49:55;;;;;;;1.70;0.88;;;16.10;99.90;;;-144.05;92.75;56976.28;6160119;23;20424;-87
2023/08/03 07:52:21;;;;;;;2.28;0.80;;;16.10;99.90;;;-144.05;91.88;56978.41;6159223;23;20087;-85
2023/08/03 07:54:47;;;;;;;3.45;1.05;;;16.20;99.90;;;-144.05;91.60;57010.25;6159660;23;20019;-86
2023/08/03 07:57:15;;;;;;;3.20;0.80;;;16.20;99.90;;;-144.05;91.40;56982.66;6186438;23;20005;-86
2023/08/03 07:59:47;;;;;;;2.33;0.95;;;16.20;99.90;;;-144.05;90.82;56997.50;6159705;23;20013;-87
2023/08/03 08:02:13;;;;;;;1.10;0.73;;;16.30;99.90;;;-144.05;91.03;56991.13;6160920;23;20455;-84
2023/08/03 08:04:38;;;;;;;1.17;0.75;;;16.50;99.90;;;-144.05;90.25;57001.75;6161047;23;20013;-86
2023/08/03 08:07:05;;;;;;;1.27;0.70;;;16.70;99.90;;;-144.05;88.68;56999.63;6162295;23;20005;-84
2023/08/03 08:09:31;;;;;;;1.00;0.60;;;16.60;99.90;;;-144.05;89.04;56989.00;6161972;23;20347;-85
2023/08/03 08:11:57;;;;;;;1.27;0.73;;;16.60;99.90;;;-144.05;88.45;57025.13;6162347;23;20009;-86
2023/08/03 08:14:23;;;;;;;2.85;0.95;;;16.60;99.90;;;-144.05;88.51;57001.75;6161178;23;20008;-85
2023/08/03 08:16:49;;;;;;;1.23;0.70;;;16.50;99.90;;;-144.05;89.06;57006.00;6186982;23;20005;-86
2023/08/03 08:19:14;;;;;;;2.33;0.98;;;16.50;99.90;;;-144.05;89.00;57003.88;6162833;23;20269;-88
2023/08/03 08:21:40;;;;;;;4.70;0.98;;;16.50;99.90;;;-144.05;88.49;57020.88;6165509;23;20009;-88
2023/08/03 08:24:06;;;;;;;1.98;0.70;;;16.60;99.90;;;-144.05;88.24;56972.03;6163074;23;20289;-87
2023/08/03 08:26:32;;;;;;;4.10;1.15;;;16.90;99.90;;;-144.05;86.67;56997.50;6164198;23;20016;-87
2023/08/03 08:28:59;;;;;;;1.83;1.20;;;17.10;99.90;;;-144.05;85.17;56980.53;6190347;23;20032;-85
2023/08/03 08:31:25;;;;;;;4.25;1.25;;;17.60;99.90;;;-144.05;82.64;57001.75;6162359;23;20004;-84
2023/08/03 08:33:51;;;;;;;3.90;1.17;;;18.30;99.90;;;-144.05;79.85;56980.53;6160815;23;20033;-86
2023/08/03 08:36:17;;;;;;;2.35;0.90;;;18.60;99.90;;;-144.05;77.44;57014.50;6187600;23;20012;-84
2023/08/03 08:38:43;;;;;;;1.27;0.90;;;18.70;99.90;;;-144.05;78.80;57012.38;6161073;23;20443;-83
2023/08/03 08:41:08;;;;;;;2.45;0.90;;;18.60;99.90;;;-144.05;78.58;56997.50;6160821;23;20431;-85
2023/08/03 08:43:34;;;;;;;7.35;1.00;;;18.40;99.90;;;-144.05;79.24;56984.78;6161214;23;20001;-82
2023/08/03 08:46:00;;;;;;;3.13;1.02;;;18.20;99.90;;;-144.05;79.20;57006.00;6187601;23;20020;-84
2023/08/03 08:48:26;;;;;;;6.93;1.08;;;18.30;99.90;;;-144.05;78.10;56997.50;6196003;23;20001;-86
2023/08/03 08:50:59;;;;;;;5.38;1.10;;;18.70;99.90;;;-144.05;75.28;56974.16;6198874;23;20029;-81
2023/08/03 08:53:25;;;;;;;5.80;1.23;;;19.20;99.90;;;-144.05;73.90;57010.25;6197182;23;20016;-83
2023/08/03 08:55:51;;;;;;;2.72;1.10;;;19.30;99.90;;;-144.05;74.06;57033.63;6190535;23;20009;-84
2023/08/03 08:58:17;;;;;;;2.40;0.60;;;19.10;99.90;;;-144.05;75.03;57003.88;6189899;23;20009;-85
2023/08/03 09:00:47;;;;;;;2.72;1.00;;;19.00;99.90;;;-144.05;76.46;57006.00;6162646;23;20013;-85
2023/08/03 09:03:15;;;;;;;2.13;0.90;;;18.80;99.90;;;-144.05;75.06;57012.38;6190131;23;20025;-81
2023/08/03 09:05:41;;;;;;;2.80;0.90;;;18.70;99.90;;;-144.05;75.67;56999.63;6189243;23;20058;-85
2023/08/03 09:08:18;;;;;;;3.10;1.00;;;18.60;99.90;;;-144.05;75.41;56995.38;6189005;23;20433;-84
2023/08/03 09:10:56;;;;;;;3.42;1.30;;;18.50;99.90;;;-144.05;76.57;57006.00;6188988;23;20347;-84
2023/08/03 09:13:32;;;;;;;2.25;0.90;;;18.50;99.90;;;-144.05;76.22;56989.00;6163414;23;20015;-84
2023/08/03 09:15:59;;;;;;;5.38;1.48;;;18.60;99.90;;;-144.05;75.86;57029.38;6159290;23;20014;-84
2023/08/03 09:18:29;;;;;;;1.92;0.80;;;18.60;99.90;;;-144.05;74.76;57018.75;6164344;23;20008;-83
2023/08/03 09:21:16;;;;;;;3.08;1.00;;;18.70;99.90;;;-144.05;74.75;57003.88;6163285;23;20012;-84
2023/08/03 09:23:42;;;;;;;2.00;1.00;;;19.00;99.90;;;-144.05;74.44;57003.88;6168325;23;20014;-84
2023/08/03 09:26:09;;;;;;;2.22;1.08;;;19.40;99.90;;;-144.05;71.48;57042.13;6167186;23;20001;-83
2023/08/03 09:28:42;;;;;;;4.68;1.27;;;19.90;99.90;;;-144.05;69.54;57012.38;6161845;23;20040;-81
2023/08/03 09:31:10;;;;;;;3.45;1.10;;;20.10;99.90;;;-144.05;68.79;57044.25;6161049;23;20010;-85
2023/08/03 09:33:37;;;;;;;3.53;1.13;;;20.20;99.90;;;-144.05;69.50;57031.50;6164862;23;20005;-83
2023/08/03 09:36:14;;;;;;;2.83;1.08;;;20.10;99.90;;;-144.05;69.20;57012.38;6165377;23;20016;-86
2023/08/03 09:38:43;;;;;;;4.15;0.80;;;19.80;99.90;;;-144.05;71.36;57023.00;6160462;23;20041;-84
2023/08/03 09:41:10;;;;;;;7.85;1.25;;;19.30;99.90;;;-144.05;72.63;57023.00;6161668;23;20010;-86
2023/08/03 09:43:40;;;;;;;3.65;0.80;;;19.10;99.90;;;-144.05;73.13;57012.38;6160274;23;20037;-84
2023/08/03 09:46:06;;;;;;;5.05;1.00;;;18.90;99.90;;;-144.05;73.10;57006.00;6162366;23;20005;-83
2023/08/03 09:48:32;;;;;;;2.92;0.95;;;18.80;99.90;;;-144.05;72.92;57016.63;6162138;23;20092;-83
2023/08/03 09:51:02;;;;;;;1.60;1.05;;;18.80;99.90;;;-144.05;73.23;56997.50;6162327;23;20009;-81
2023/08/03 09:53:37;;;;;;;2.15;1.10;;;18.60;99.90;;;-144.05;73.43;56995.38;6160510;23;20009;-83
2023/08/03 09:56:05;;;;;;;2.83;1.13;;;18.60;99.90;;;-144.05;74.04;56995.38;6159918;23;20013;-82
2023/08/03 09:58:58;;;;;;;5.35;0.85;;;18.60;99.90;;;-144.05;73.91;57006.00;6158042;23;20013;-84
2023/08/03 10:01:28;;;;;;;2.90;1.00;;;18.50;99.90;;;-144.05;74.59;57008.13;6161306;23;20013;-85
2023/08/03 10:04:02;;;;;;;4.15;0.80;;;18.50;99.90;;;-144.05;75.68;57014.50;6160546;23;20151;-82